Time;durP1;ratioP1;P1;durP2;ratioP2;P2;SDS_P1;SDS_P2;PMS_P1;PMS_P2;Temp;Humidity;BMP_temperature;BMP_pressure;BME280_temperature;BME280_humidity;BME280_pressure;Samples;Min_cycle;Max_cycle;Signal;HPM_P1;HPM_P2
2022/01/08 00:01:38;;;;;;;2.65;0.50;;;2.00;99.90;;;;;;4974045;28;20058;-71
2022/01/08 00:04:04;;;;;;;4.05;0.85;;;2.00;99.90;;;;;;4973557;28;20110;-71
2022/01/08 00:06:30;;;;;;;3.33;1.58;;;2.00;99.90;;;;;;4973890;28;20465;-69
2022/01/08 00:08:56;;;;;;;1.45;0.70;;;2.00;99.90;;;;;;4974143;28;20058;-70
2022/01/08 00:11:25;;;;;;;3.35;0.95;;;1.90;99.90;;;;;;4973267;28;20125;-69
2022/01/08 00:13:51;;;;;;;1.85;0.70;;;1.90;99.90;;;;;;4973839;28;20066;-69
2022/01/08 00:16:17;;;;;;;1.40;0.85;;;1.80;99.90;;;;;;4972907;28;20756;-72
2022/01/08 00:18:42;;;;;;;1.10;0.68;;;1.80;99.90;;;;;;4973866;28;20027;-72
2022/01/08 00:21:08;;;;;;;1.98;0.90;;;1.90;99.90;;;;;;4972680;28;20035;-70
2022/01/08 00:23:34;;;;;;;3.63;0.90;;;1.90;99.90;;;;;;4974072;28;20385;-69
2022/01/08 00:26:04;;;;;;;4.15;1.00;;;1.90;99.90;;;;;;4972878;28;20026;-70
2022/01/08 00:28:30;;;;;;;1.88;0.82;;;1.90;99.90;;;;;;4973724;28;20027;-70
2022/01/08 00:30:56;;;;;;;3.67;0.90;;;1.80;99.90;;;;;;4973699;28;20047;-69
2022/01/08 00:33:23;;;;;;;4.72;1.00;;;1.90;99.90;;;;;;4973202;28;20030;-70
2022/01/08 00:35:48;;;;;;;2.75;1.05;;;1.90;99.90;;;;;;4973905;28;20369;-70
2022/01/08 00:38:14;;;;;;;2.85;1.02;;;1.90;99.90;;;;;;4973049;28;20035;-70
2022/01/08 00:40:40;;;;;;;2.65;1.42;;;2.00;99.90;;;;;;4974055;28;20039;-69
2022/01/08 00:43:06;;;;;;;3.42;1.60;;;2.00;99.90;;;;;;4973262;28;20034;-70
2022/01/08 00:45:32;;;;;;;1.80;1.08;;;2.10;99.90;;;;;;4972985;28;20113;-71
2022/01/08 00:47:58;;;;;;;3.08;1.10;;;2.10;99.90;;;;;;4973500;28;20027;-70
2022/01/08 00:50:23;;;;;;;1.60;1.20;;;2.10;99.90;;;;;;4972489;28;20094;-70
2022/01/08 00:52:49;;;;;;;4.32;1.55;;;2.10;99.90;;;;;;4973473;28;20353;-70
2022/01/08 00:55:15;;;;;;;1.95;1.25;;;2.10;99.90;;;;;;4972163;28;20046;-70
2022/01/08 00:57:41;;;;;;;3.50;1.52;;;2.20;99.90;;;;;;4973388;28;20039;-70
2022/01/08 01:00:10;;;;;;;3.10;1.75;;;2.20;99.90;;;;;;4972771;28;20389;-70
2022/01/08 01:02:37;;;;;;;3.33;1.30;;;2.20;99.90;;;;;;4973574;28;20035;-70
2022/01/08 01:05:05;;;;;;;2.13;1.25;;;2.10;99.90;;;;;;4973111;28;20380;-70
2022/01/08 01:07:31;;;;;;;2.05;1.48;;;2.10;99.90;;;;;;4973506;28;20042;-70
2022/01/08 01:09:56;;;;;;;2.55;1.50;;;2.10;99.90;;;;;;4973438;28;20114;-70
2022/01/08 01:12:22;;;;;;;2.85;1.27;;;2.10;99.90;;;;;;4971816;28;20516;-70
2022/01/08 01:14:48;;;;;;;3.13;1.45;;;2.20;99.90;;;;;;4972844;28;20456;-70
2022/01/08 01:17:14;;;;;;;3.40;1.42;;;2.10;99.90;;;;;;4971789;28;20031;-70
2022/01/08 01:19:40;;;;;;;3.35;1.23;;;2.10;99.90;;;;;;4972605;28;20035;-70
2022/01/08 01:22:05;;;;;;;3.33;1.92;;;2.10;99.90;;;;;;4972130;28;20490;-70
2022/01/08 01:24:33;;;;;;;2.40;1.30;;;2.10;99.90;;;;;;4972906;28;20033;-70
2022/01/08 01:30:01;;;;;;;2.85;1.60;;;2.10;99.90;;;;;;4972443;28;20114;-70
2022/01/08 01:48:50;;;;;;;4.40;1.60;;;1.90;99.90;;;;;;4972805;28;20035;-70
2022/01/08 01:51:24;;;;;;;4.20;1.30;;;2.00;99.90;;;;;;4971638;28;20062;-70
2022/01/08 01:53:50;;;;;;;2.92;1.25;;;2.00;99.90;;;;;;4972996;28;20030;-70
2022/01/08 01:56:18;;;;;;;4.57;1.50;;;2.00;99.90;;;;;;4971346;28;20026;-70
2022/01/08 01:58:44;;;;;;;4.65;1.48;;;1.90;99.90;;;;;;4971529;28;20074;-70
2022/01/08 02:01:10;;;;;;;2.78;1.40;;;2.00;99.90;;;;;;4972947;28;20118;-70
2022/01/08 02:03:36;;;;;;;4.88;1.50;;;2.00;99.90;;;;;;4972865;28;20532;-70
2022/01/08 02:06:08;;;;;;;2.60;1.60;;;2.00;99.90;;;;;;4972455;28;20030;-71
2022/01/08 02:08:35;;;;;;;5.82;1.52;;;2.00;99.90;;;;;;4972299;28;20483;-70
2022/01/08 02:11:01;;;;;;;5.43;1.50;;;2.00;99.90;;;;;;4972077;28;20050;-70
2022/01/08 02:13:28;;;;;;;2.45;1.20;;;2.00;99.90;;;;;;4971336;28;20043;-70
2022/01/08 02:15:55;;;;;;;1.98;1.27;;;2.00;99.90;;;;;;4972136;28;20095;-69
2022/01/08 02:18:27;;;;;;;4.60;1.40;;;2.00;99.90;;;;;;4971469;28;20069;-70
2022/01/08 02:20:59;;;;;;;3.17;1.50;;;2.00;99.90;;;;;;4972210;28;20035;-70
2022/01/08 02:23:26;;;;;;;6.97;1.33;;;2.10;99.90;;;;;;4966824;28;20020;-70
2022/01/08 02:26:06;;;;;;;2.63;0.98;;;2.10;99.90;;;;;;4953207;29;20130;-70
2022/01/08 02:28:33;;;;;;;3.95;1.10;;;2.10;99.90;;;;;;4953247;29;20093;-70
2022/01/08 02:30:59;;;;;;;2.15;1.10;;;2.20;99.90;;;;;;4959944;28;20131;-70
2022/01/08 02:33:28;;;;;;;5.40;1.10;;;2.30;99.90;;;;;;4971034;28;20106;-70
2022/01/08 02:35:54;;;;;;;4.63;1.40;;;2.30;99.90;;;;;;4972370;28;20035;-71
2022/01/08 02:38:20;;;;;;;3.80;0.80;;;2.30;99.90;;;;;;4971161;28;20777;-71
2022/01/08 02:41:02;;;;;;;6.05;1.10;;;2.40;99.90;;;;;;4971718;28;20038;-70
2022/01/08 02:43:31;;;;;;;4.38;0.90;;;2.40;99.90;;;;;;4974707;28;20023;-70
2022/01/08 02:45:57;;;;;;;2.05;1.00;;;2.40;99.90;;;;;;4975587;28;20031;-70
2022/01/08 02:48:22;;;;;;;2.17;0.80;;;2.40;99.90;;;;;;4974667;28;20097;-70
2022/01/08 02:50:48;;;;;;;2.97;1.00;;;2.40;99.90;;;;;;4975710;28;20502;-70
2022/01/08 02:53:15;;;;;;;2.50;1.13;;;2.50;99.90;;;;;;4974859;28;20026;-70
2022/01/08 02:55:41;;;;;;;1.42;0.70;;;2.50;99.90;;;;;;4975833;28;20065;-70
2022/01/08 02:58:07;;;;;;;4.25;1.00;;;2.60;99.90;;;;;;4974539;28;20031;-70
2022/01/08 03:00:33;;;;;;;3.03;1.15;;;2.60;99.90;;;;;;4975280;28;20439;-70
2022/01/08 03:02:59;;;;;;;2.95;0.90;;;2.60;99.90;;;;;;4975594;28;20031;-70
2022/01/08 03:05:25;;;;;;;5.38;2.00;;;2.60;99.90;;;;;;4974593;28;20031;-70
2022/01/08 03:07:50;;;;;;;3.05;1.45;;;2.60;99.90;;;;;;4975102;28;20041;-70
2022/01/08 03:10:18;;;;;;;4.80;0.98;;;2.60;99.90;;;;;;4974625;28;20030;-70
2022/01/08 03:12:45;;;;;;;3.00;1.08;;;2.60;99.90;;;;;;4974978;28;20476;-70
2022/01/08 03:15:21;;;;;;;2.83;0.90;;;2.70;99.90;;;;;;4957626;28;20130;-70
2022/01/08 03:17:48;;;;;;;1.70;0.80;;;2.80;99.90;;;;;;4955643;29;20059;-70
2022/01/08 03:20:16;;;;;;;4.68;0.80;;;2.90;99.90;;;;;;4955026;29;20053;-70
2022/01/08 03:22:45;;;;;;;1.60;0.80;;;2.90;99.90;;;;;;4955708;29;20038;-70
2022/01/08 03:25:11;;;;;;;4.87;1.10;;;3.00;99.90;;;;;;4954690;29;20058;-70
2022/01/08 03:27:37;;;;;;;1.38;0.82;;;3.00;99.90;;;;;;4955870;29;20055;-70
2022/01/08 03:30:11;;;;;;;1.90;0.70;;;3.10;99.90;;;;;;4955372;29;20035;-70
2022/01/08 03:32:36;;;;;;;2.38;0.82;;;3.10;99.90;;;;;;4955413;29;20106;-70
2022/01/08 03:35:03;;;;;;;3.53;0.82;;;3.10;99.90;;;;;;4954006;29;20425;-70
2022/01/08 03:37:28;;;;;;;2.25;0.82;;;3.00;99.90;;;;;;4954724;29;20027;-70
2022/01/08 03:39:54;;;;;;;2.15;0.90;;;3.00;99.90;;;;;;4955470;29;20082;-69
2022/01/08 03:42:20;;;;;;;1.92;1.15;;;2.90;99.90;;;;;;4954688;29;20388;-69
2022/01/08 03:44:45;;;;;;;4.15;0.75;;;2.90;99.90;;;;;;4955502;29;20063;-69
2022/01/08 03:49:54;;;;;;;4.25;0.80;;;2.80;99.90;;;;;;4955011;29;20031;-71
2022/01/08 03:52:21;;;;;;;5.55;1.08;;;2.80;99.90;;;;;;4954316;29;20473;-71
2022/01/08 03:54:47;;;;;;;3.20;1.17;;;2.80;99.90;;;;;;4954557;28;20028;-70
2022/01/08 03:57:14;;;;;;;1.88;0.85;;;2.70;99.90;;;;;;4954303;29;20037;-71
2022/01/08 03:59:39;;;;;;;1.60;1.20;;;2.70;99.90;;;;;;4955147;29;20027;-71
2022/01/08 04:02:11;;;;;;;2.55;1.50;;;2.60;99.90;;;;;;4954754;29;20114;-71
2022/01/08 04:04:37;;;;;;;3.88;1.45;;;2.60;99.90;;;;;;4955165;29;20035;-70
2022/01/08 04:07:03;;;;;;;3.75;1.50;;;2.50;99.90;;;;;;4954975;29;20035;-70
2022/01/08 04:09:29;;;;;;;4.85;1.48;;;2.50;99.90;;;;;;4953638;29;20086;-71
2022/01/08 04:11:56;;;;;;;3.30;1.50;;;2.40;99.90;;;;;;4954783;29;20054;-71
2022/01/08 04:14:22;;;;;;;4.07;1.90;;;2.40;99.90;;;;;;4963342;28;20051;-71
2022/01/08 04:16:51;;;;;;;2.88;1.90;;;2.30;99.90;;;;;;4974365;28;20042;-71
2022/01/08 04:19:19;;;;;;;3.13;1.70;;;2.30;99.90;;;;;;4973054;28;20022;-71
2022/01/08 04:24:22;;;;;;;4.65;1.98;;;2.40;99.90;;;;;;4966412;28;20028;-71
2022/01/08 04:26:48;;;;;;;3.90;2.00;;;2.50;99.90;;;;;;4965219;28;20434;-71
2022/01/08 04:29:13;;;;;;;4.10;1.83;;;2.50;99.90;;;;;;4970476;28;20023;-71
2022/01/08 04:31:39;;;;;;;4.10;2.33;;;2.50;99.90;;;;;;4964851;28;20462;-71
2022/01/08 04:34:05;;;;;;;4.18;2.25;;;2.50;99.90;;;;;;4970869;28;20027;-71
2022/01/08 04:36:30;;;;;;;5.47;2.38;;;2.50;99.90;;;;;;4971960;28;20086;-71
2022/01/08 04:38:56;;;;;;;3.92;2.10;;;2.50;99.90;;;;;;4966990;28;20428;-70
2022/01/08 04:41:22;;;;;;;3.78;2.28;;;2.50;99.90;;;;;;4964676;28;20035;-71
2022/01/08 04:43:48;;;;;;;3.17;1.80;;;2.60;99.90;;;;;;4968774;28;20027;-71
2022/01/08 04:46:14;;;;;;;3.15;2.05;;;2.50;99.90;;;;;;4965582;28;20038;-71
2022/01/08 04:48:39;;;;;;;4.88;2.20;;;2.50;99.90;;;;;;4967173;28;20035;-71
2022/01/08 04:51:07;;;;;;;4.80;2.38;;;2.50;99.90;;;;;;4962934;28;20058;-71
2022/01/08 04:53:33;;;;;;;2.45;2.10;;;2.40;99.90;;;;;;4965528;28;20023;-71
2022/01/08 04:55:59;;;;;;;3.30;2.05;;;2.40;99.90;;;;;;4968072;28;20499;-71
2022/01/08 04:58:25;;;;;;;5.43;2.45;;;2.30;99.90;;;;;;4964811;28;20041;-71
2022/01/08 05:00:51;;;;;;;3.15;2.55;;;2.20;99.90;;;;;;4967657;28;20030;-71
2022/01/08 05:03:17;;;;;;;4.72;1.85;;;2.20;99.90;;;;;;4970351;28;20082;-72
2022/01/08 05:05:42;;;;;;;2.10;1.50;;;2.20;99.90;;;;;;4963706;28;20389;-71
2022/01/08 05:08:10;;;;;;;2.95;1.70;;;2.20;99.90;;;;;;4967260;28;20424;-72
2022/01/08 05:10:35;;;;;;;4.03;2.08;;;2.10;99.90;;;;;;4968042;28;20051;-74
2022/01/08 05:13:04;;;;;;;3.45;2.97;;;2.00;99.90;;;;;;4968779;28;20468;-72
2022/01/08 05:15:33;;;;;;;2.65;1.75;;;1.90;99.90;;;;;;4967564;28;20138;-72
2022/01/08 05:17:59;;;;;;;2.75;1.83;;;1.90;99.90;;;;;;4969190;28;20027;-72
2022/01/08 05:20:30;;;;;;;1.75;1.48;;;1.80;99.90;;;;;;4970761;28;20029;-72
2022/01/08 05:23:00;;;;;;;1.73;1.60;;;1.70;99.90;;;;;;4972978;28;20031;-72
2022/01/08 05:25:27;;;;;;;1.88;1.30;;;1.60;99.90;;;;;;4972069;28;20058;-72
2022/01/08 05:27:52;;;;;;;1.52;1.38;;;1.60;99.90;;;;;;4972692;28;20121;-71
2022/01/08 05:30:20;;;;;;;2.60;1.52;;;1.60;99.90;;;;;;4972053;28;20110;-72
2022/01/08 05:32:47;;;;;;;1.73;1.38;;;1.50;99.90;;;;;;4973173;28;20066;-72
2022/01/08 05:35:13;;;;;;;1.67;1.27;;;1.50;99.90;;;;;;4972297;28;20085;-72
2022/01/08 05:37:39;;;;;;;2.20;1.50;;;1.50;99.90;;;;;;4972947;28;20468;-71
2022/01/08 05:40:05;;;;;;;2.85;1.50;;;1.60;99.90;;;;;;4972763;28;20035;-71
2022/01/08 05:42:31;;;;;;;3.47;1.60;;;1.60;99.90;;;;;;4969998;28;20046;-71
2022/01/08 05:44:57;;;;;;;3.25;1.45;;;1.50;99.90;;;;;;4967077;28;20043;-71
2022/01/08 05:47:23;;;;;;;3.13;1.65;;;1.50;99.90;;;;;;4972193;28;20029;-72
2022/01/08 05:49:49;;;;;;;5.47;2.10;;;1.50;99.90;;;;;;4972809;28;20118;-72
2022/01/08 05:52:15;;;;;;;5.63;1.40;;;1.50;99.90;;;;;;4970625;28;20070;-71
2022/01/08 05:54:42;;;;;;;2.25;1.30;;;1.40;99.90;;;;;;4972701;28;20059;-72
2022/01/08 05:57:08;;;;;;;1.70;1.40;;;1.50;99.90;;;;;;4972439;28;20050;-70
2022/01/08 05:59:33;;;;;;;1.42;1.10;;;1.50;99.90;;;;;;4971467;28;20058;-72
2022/01/08 06:01:59;;;;;;;0.80;0.80;;;1.60;99.90;;;;;;4965940;28;20118;-72
2022/01/08 06:04:25;;;;;;;0.50;0.50;;;1.60;99.90;;;;;;4968040;28;20030;-69
2022/01/08 06:06:51;;;;;;;0.73;0.50;;;1.70;99.90;;;;;;4966828;28;20045;-72
2022/01/08 06:09:17;;;;;;;0.20;0.20;;;1.70;99.90;;;;;;4966901;28;20042;-72
2022/01/08 06:11:42;;;;;;;0.63;0.20;;;1.80;99.90;;;;;;4968464;28;20045;-72
2022/01/08 06:14:08;;;;;;;0.85;0.28;;;1.80;99.90;;;;;;4969172;28;20039;-72
2022/01/08 06:16:36;;;;;;;1.20;0.60;;;1.70;99.90;;;;;;4971459;28;20464;-72
2022/01/08 06:19:07;;;;;;;0.30;0.28;;;1.70;99.90;;;;;;4974809;28;20117;-71
2022/01/08 06:21:34;;;;;;;0.70;0.30;;;1.70;99.90;;;;;;4974107;28;20492;-71
2022/01/08 06:24:00;;;;;;;0.25;0.22;;;1.60;99.90;;;;;;4974824;28;20023;-72
2022/01/08 06:26:25;;;;;;;0.20;0.20;;;1.60;99.90;;;;;;4973995;28;20109;-71
2022/01/08 06:28:51;;;;;;;0.30;0.20;;;1.60;99.90;;;;;;4972039;28;20035;-71
2022/01/08 06:31:21;;;;;;;0.20;0.20;;;1.60;99.90;;;;;;4973845;28;20023;-71
2022/01/08 06:33:47;;;;;;;1.48;0.20;;;1.50;99.90;;;;;;4974492;28;20034;-71
2022/01/08 06:36:14;;;;;;;1.00;0.13;;;1.50;99.90;;;;;;4974031;28;20456;-71
2022/01/08 06:38:40;;;;;;;0.22;0.10;;;1.50;99.90;;;;;;4971711;28;20027;-70
2022/01/08 06:41:06;;;;;;;1.63;0.20;;;1.40;99.90;;;;;;4974578;28;20037;-71
2022/01/08 06:43:31;;;;;;;0.25;0.20;;;1.50;99.90;;;;;;4974856;28;20109;-71
2022/01/08 06:45:57;;;;;;;2.63;0.40;;;1.40;99.90;;;;;;4974972;28;20424;-71
2022/01/08 06:48:23;;;;;;;0.50;0.20;;;1.40;99.90;;;;;;4975205;28;20138;-71
2022/01/08 06:50:48;;;;;;;0.93;0.30;;;1.50;99.90;;;;;;4975957;28;20535;-72
2022/01/08 06:53:14;;;;;;;1.23;0.50;;;1.50;99.90;;;;;;4975092;28;20122;-72
2022/01/08 06:55:40;;;;;;;0.80;0.20;;;1.40;99.90;;;;;;4975317;28;20023;-72
2022/01/08 06:58:05;;;;;;;0.63;0.40;;;1.40;99.90;;;;;;4975139;28;20572;-72
2022/01/08 07:00:31;;;;;;;0.52;0.40;;;1.50;99.90;;;;;;4974651;28;20062;-71
2022/01/08 07:02:56;;;;;;;1.15;0.50;;;1.40;99.90;;;;;;4975321;28;20026;-72
2022/01/08 07:05:22;;;;;;;3.58;0.50;;;1.50;99.90;;;;;;4974625;28;20030;-71
2022/01/08 07:07:48;;;;;;;0.75;0.47;;;1.50;99.90;;;;;;4975417;28;20115;-72
2022/01/08 07:10:14;;;;;;;1.58;0.55;;;1.50;99.90;;;;;;4973390;28;20105;-72
2022/01/08 07:12:39;;;;;;;0.70;0.55;;;1.50;99.90;;;;;;4973635;28;20054;-72
2022/01/08 07:15:07;;;;;;;0.45;0.45;;;1.50;99.90;;;;;;4970806;28;20572;-71
2022/01/08 07:17:33;;;;;;;2.00;0.82;;;1.50;99.90;;;;;;4973334;28;20046;-71
2022/01/08 07:19:59;;;;;;;2.30;0.65;;;1.50;99.90;;;;;;4973475;28;20468;-72
2022/01/08 07:22:24;;;;;;;1.75;0.60;;;1.50;99.90;;;;;;4970140;28;20031;-71
2022/01/08 07:24:50;;;;;;;2.67;0.80;;;1.50;99.90;;;;;;4973427;28;20031;-71
2022/01/08 07:27:16;;;;;;;2.38;0.80;;;1.50;99.90;;;;;;4972690;28;20027;-71
2022/01/08 07:29:41;;;;;;;2.25;1.00;;;1.40;99.90;;;;;;4972346;28;20139;-71
2022/01/08 07:32:07;;;;;;;1.45;0.90;;;1.40;99.90;;;;;;4973936;28;20053;-71
2022/01/08 07:34:33;;;;;;;2.20;1.27;;;1.40;99.90;;;;;;4973536;28;20038;-71
2022/01/08 07:36:58;;;;;;;5.15;1.23;;;1.40;99.90;;;;;;4974550;28;20110;-71
2022/01/08 07:39:24;;;;;;;2.00;1.48;;;1.30;99.90;;;;;;4973862;28;20412;-71
2022/01/08 07:41:50;;;;;;;2.15;1.45;;;1.30;99.90;;;;;;4974501;28;20117;-72
2022/01/08 07:44:15;;;;;;;2.47;1.38;;;1.20;99.90;;;;;;4974158;28;20114;-72
2022/01/08 07:46:41;;;;;;;3.45;1.75;;;1.30;99.90;;;;;;4973752;28;20031;-72
2022/01/08 07:49:09;;;;;;;4.78;1.50;;;1.30;99.90;;;;;;4974617;28;20033;-72
2022/01/08 07:51:35;;;;;;;4.03;1.60;;;1.30;99.90;;;;;;4973297;28;20038;-72
2022/01/08 07:54:00;;;;;;;4.30;1.55;;;1.20;99.90;;;;;;4974607;28;20448;-72
2022/01/08 07:56:26;;;;;;;3.70;1.50;;;1.20;99.90;;;;;;4973168;28;20061;-72
2022/01/08 07:58:52;;;;;;;3.00;1.73;;;1.20;99.90;;;;;;4974404;28;20046;-72
2022/01/08 08:01:17;;;;;;;4.35;1.88;;;1.10;99.90;;;;;;4973456;28;20058;-72
2022/01/08 08:03:43;;;;;;;2.53;1.63;;;1.10;99.90;;;;;;4973778;28;20050;-72
2022/01/08 08:06:11;;;;;;;2.72;1.77;;;1.10;99.90;;;;;;4973052;28;20037;-72
2022/01/08 08:08:37;;;;;;;2.50;1.30;;;1.20;99.90;;;;;;4972847;28;20038;-72
2022/01/08 08:11:03;;;;;;;4.22;1.95;;;1.20;99.90;;;;;;4973835;28;20027;-69
2022/01/08 08:13:28;;;;;;;4.35;1.23;;;1.30;99.90;;;;;;4973068;28;20046;-72
2022/01/08 08:15:54;;;;;;;6.13;1.45;;;1.40;99.90;;;;;;4974342;28;20427;-71
2022/01/08 08:18:20;;;;;;;3.38;1.50;;;1.40;99.90;;;;;;4972608;28;20031;-72
2022/01/08 08:20:46;;;;;;;4.65;1.27;;;1.40;99.90;;;;;;4973419;28;20035;-70
2022/01/08 08:23:12;;;;;;;1.42;1.33;;;1.40;99.90;;;;;;4970604;28;20481;-71
2022/01/08 08:25:37;;;;;;;3.75;1.52;;;1.40;99.90;;;;;;4969669;28;20073;-71
2022/01/08 08:28:04;;;;;;;2.45;1.63;;;1.50;99.90;;;;;;4970380;28;20476;-70
2022/01/08 08:30:30;;;;;;;3.22;2.25;;;1.50;99.90;;;;;;4973310;28;20037;-71
2022/01/08 08:32:56;;;;;;;5.30;1.75;;;1.50;99.90;;;;;;4956935;28;20027;-72
2022/01/08 08:35:21;;;;;;;5.47;1.42;;;1.60;99.90;;;;;;4972393;28;20034;-72
2022/01/08 08:37:47;;;;;;;2.28;1.45;;;1.60;99.90;;;;;;4974062;28;20495;-72
2022/01/08 08:40:14;;;;;;;5.60;1.10;;;1.60;99.90;;;;;;4973119;28;20082;-72
2022/01/08 08:42:41;;;;;;;3.00;1.10;;;1.80;99.90;;;;;;4973229;28;20071;-72
2022/01/08 08:45:07;;;;;;;4.88;1.10;;;1.80;99.90;;;;;;4973395;28;20042;-72
2022/01/08 08:47:33;;;;;;;3.60;0.80;;;1.80;99.90;;;;;;4972031;28;20035;-72
2022/01/08 08:50:00;;;;;;;3.38;1.13;;;1.90;99.90;;;;;;4972812;28;20031;-72
2022/01/08 08:52:26;;;;;;;1.90;0.80;;;1.90;99.90;;;;;;4972535;28;20030;-72
2022/01/08 08:54:52;;;;;;;5.78;1.35;;;2.00;99.90;;;;;;4973085;28;20499;-72
2022/01/08 08:57:18;;;;;;;6.05;1.15;;;1.90;99.90;;;;;;4972045;28;20359;-72
2022/01/08 08:59:44;;;;;;;4.25;1.23;;;1.90;99.90;;;;;;4973126;28;20101;-72
2022/01/08 09:02:10;;;;;;;3.53;0.77;;;2.00;99.90;;;;;;4973193;28;20054;-72
2022/01/08 09:04:40;;;;;;;2.95;0.80;;;2.00;99.90;;;;;;4972223;28;20027;-72
2022/01/08 09:07:06;;;;;;;2.90;0.68;;;2.20;99.90;;;;;;4973404;28;20175;-72
2022/01/08 09:09:32;;;;;;;2.53;1.00;;;2.20;99.90;;;;;;4972322;28;20039;-70
2022/01/08 09:11:57;;;;;;;3.55;1.70;;;2.20;99.90;;;;;;4972655;28;20065;-71
2022/01/08 09:14:23;;;;;;;4.07;1.00;;;2.20;99.90;;;;;;4962193;28;20508;-70
2022/01/08 09:16:52;;;;;;;3.67;0.90;;;2.20;99.90;;;;;;4936403;29;20031;-70
2022/01/08 09:19:18;;;;;;;2.42;0.73;;;2.30;99.90;;;;;;4953024;29;20473;-70
2022/01/08 09:21:45;;;;;;;3.55;0.85;;;2.30;99.90;;;;;;4954155;29;20037;-70
2022/01/08 09:24:12;;;;;;;6.13;1.13;;;2.20;99.90;;;;;;4953187;29;20389;-71
2022/01/08 09:26:38;;;;;;;4.88;1.08;;;2.20;99.90;;;;;;4952992;29;20054;-70
2022/01/08 09:29:04;;;;;;;4.90;0.98;;;2.30;99.90;;;;;;4953250;29;20047;-72
2022/01/08 09:31:29;;;;;;;5.90;1.10;;;2.20;99.90;;;;;;4952449;29;20039;-73
2022/01/08 09:33:55;;;;;;;3.25;0.90;;;2.20;99.90;;;;;;4952687;29;20031;-72
2022/01/08 09:36:21;;;;;;;3.70;1.10;;;2.20;99.90;;;;;;4952700;29;20031;-72
2022/01/08 09:38:47;;;;;;;2.17;1.00;;;2.30;99.90;;;;;;4953526;29;20465;-72
2022/01/08 09:41:12;;;;;;;3.13;1.20;;;2.40;99.90;;;;;;4953488;29;20043;-72
2022/01/08 09:43:38;;;;;;;5.90;1.40;;;2.40;99.90;;;;;;4935146;29;20464;-71
2022/01/08 09:46:04;;;;;;;4.28;1.40;;;2.40;99.90;;;;;;4953059;29;20441;-71
2022/01/08 09:48:30;;;;;;;3.88;1.50;;;2.50;99.90;;;;;;4953131;29;20031;-72
2022/01/08 09:50:56;;;;;;;7.53;1.90;;;2.40;99.90;;;;;;4952757;28;20093;-71
2022/01/08 09:53:22;;;;;;;3.22;0.98;;;2.50;99.90;;;;;;4956223;29;20476;-71
2022/01/08 09:55:48;;;;;;;3.38;1.40;;;2.50;99.90;;;;;;4957144;29;20027;-71
2022/01/08 09:58:14;;;;;;;3.00;1.45;;;2.60;99.90;;;;;;4957133;29;20031;-71
2022/01/08 10:00:41;;;;;;;5.28;1.20;;;2.70;99.90;;;;;;4956258;29;20118;-71
2022/01/08 10:03:23;;;;;;;7.82;1.88;;;2.70;99.90;;;;;;4957261;29;20028;-71
2022/01/08 10:05:55;;;;;;;4.57;1.38;;;2.80;99.90;;;;;;4956904;29;20031;-72
2022/01/08 10:08:25;;;;;;;5.38;1.88;;;2.80;99.90;;;;;;4956275;29;20384;-71
2022/01/08 10:10:55;;;;;;;7.60;1.33;;;2.90;99.90;;;;;;4956741;29;20046;-71
2022/01/08 10:13:23;;;;;;;6.50;1.92;;;2.80;99.90;;;;;;4955850;28;20027;-71
2022/01/08 10:18:36;;;;;;;4.88;1.20;;;3.00;99.90;;;;;;4956355;29;20034;-71
2022/01/08 10:21:21;;;;;;;3.20;1.10;;;3.10;99.90;;;;;;4956741;29;20060;-71
2022/01/08 10:23:50;;;;;;;2.15;1.13;;;3.10;99.90;;;;;;4956788;29;20057;-71
2022/01/08 10:26:19;;;;;;;4.15;1.52;;;3.10;99.90;;;;;;4956422;29;20027;-71
2022/01/08 10:28:48;;;;;;;4.85;1.85;;;3.10;99.90;;;;;;4956392;29;20038;-71
2022/01/08 10:31:26;;;;;;;3.85;1.60;;;3.10;99.90;;;;;;4956514;29;20031;-71
2022/01/08 10:34:08;;;;;;;6.45;1.58;;;3.10;99.90;;;;;;4956738;29;20027;-71
2022/01/08 10:36:38;;;;;;;2.58;1.10;;;3.10;99.90;;;;;;4955943;29;20038;-71
2022/01/08 10:39:17;;;;;;;4.90;1.38;;;3.20;99.90;;;;;;4956403;29;20436;-71
2022/01/08 10:41:45;;;;;;;4.68;1.40;;;3.30;99.90;;;;;;4956417;29;20043;-71
2022/01/08 10:44:25;;;;;;;4.22;1.15;;;3.30;99.90;;;;;;4938609;29;20106;-71
2022/01/08 10:47:02;;;;;;;2.70;1.23;;;3.50;99.90;;;;;;4956410;29;20594;-71
2022/01/08 10:50:03;;;;;;;7.00;1.40;;;3.40;99.90;;;;;;4955760;29;20035;-71
2022/01/08 10:52:39;;;;;;;7.30;1.38;;;3.30;99.90;;;;;;4954490;29;20058;-71
2022/01/08 10:55:05;;;;;;;4.32;0.95;;;3.30;99.90;;;;;;4955649;29;20024;-71
2022/01/08 10:57:45;;;;;;;5.47;0.93;;;3.20;99.90;;;;;;4955406;29;20035;-71
2022/01/08 11:00:14;;;;;;;7.95;1.00;;;3.20;99.90;;;;;;4938483;29;20034;-72
2022/01/08 11:02:41;;;;;;;4.67;1.30;;;3.20;99.90;;;;;;4954892;28;20035;-72
2022/01/08 11:05:09;;;;;;;4.47;1.08;;;3.10;99.90;;;;;;4955875;29;20020;-71
2022/01/08 11:07:36;;;;;;;6.93;1.10;;;3.10;99.90;;;;;;4955405;29;20035;-72
2022/01/08 11:10:08;;;;;;;7.72;1.75;;;3.10;99.90;;;;;;4956337;29;20053;-72
2022/01/08 11:12:44;;;;;;;7.07;1.30;;;3.10;99.90;;;;;;4955063;29;20031;-73
2022/01/08 11:17:46;;;;;;;3.70;1.30;;;3.10;99.90;;;;;;4955401;29;20063;-71
2022/01/08 11:20:21;;;;;;;5.53;1.80;;;3.10;99.90;;;;;;4955662;29;20023;-72
2022/01/08 11:22:55;;;;;;;3.30;1.20;;;3.20;99.90;;;;;;4955658;29;20046;-72
2022/01/08 11:25:34;;;;;;;6.07;1.27;;;3.20;99.90;;;;;;4954914;29;20019;-71
2022/01/08 11:28:05;;;;;;;4.07;1.00;;;3.30;99.90;;;;;;4929507;29;20078;-71
2022/01/08 11:30:37;;;;;;;3.08;1.02;;;3.30;99.90;;;;;;4955340;29;20020;-72
2022/01/08 11:33:09;;;;;;;4.47;1.15;;;3.40;99.90;;;;;;4955201;29;20118;-72
2022/01/08 11:35:37;;;;;;;3.50;1.05;;;3.40;99.90;;;;;;4954796;29;20035;-71
2022/01/08 11:38:08;;;;;;;2.45;1.02;;;3.40;99.90;;;;;;4955375;29;20077;-70
2022/01/08 11:40:36;;;;;;;3.13;1.08;;;3.40;99.90;;;;;;4954406;29;20114;-71
2022/01/08 11:43:04;;;;;;;4.80;1.20;;;3.40;99.90;;;;;;4955173;29;20516;-70
2022/01/08 11:45:35;;;;;;;6.00;1.50;;;3.40;99.90;;;;;;4953645;29;20499;-70
2022/01/08 11:48:04;;;;;;;4.00;1.05;;;3.40;99.90;;;;;;4955427;29;20023;-71
2022/01/08 11:50:31;;;;;;;6.35;1.52;;;3.50;99.90;;;;;;4954229;29;20051;-71
2022/01/08 11:53:22;;;;;;;5.45;1.50;;;3.60;99.90;;;;;;4955160;29;20035;-70
2022/01/08 11:55:51;;;;;;;12.48;1.40;;;3.70;99.90;;;;;;4955010;29;20027;-70
2022/01/08 11:58:30;;;;;;;6.60;1.08;;;3.80;99.90;;;;;;4954762;29;20031;-70
2022/01/08 12:01:04;;;;;;;3.55;1.15;;;3.70;99.90;;;;;;4954531;29;20070;-70
2022/01/08 12:03:51;;;;;;;5.25;1.17;;;3.80;99.90;;;;;;4954165;29;20373;-69
2022/01/08 12:06:23;;;;;;;6.47;1.27;;;3.80;99.90;;;;;;4954706;29;20079;-69
2022/01/08 12:09:18;;;;;;;2.88;0.93;;;3.90;99.90;;;;;;4935517;29;20469;-70
2022/01/08 12:11:47;;;;;;;2.22;0.77;;;3.90;99.90;;;;;;4934723;29;20039;-70
2022/01/08 12:14:24;;;;;;;2.67;0.77;;;4.00;99.90;;;;;;4943414;28;20094;-70
2022/01/08 12:16:55;;;;;;;4.85;1.08;;;4.10;99.90;;;;;;4959063;28;20065;-71
2022/01/08 12:19:28;;;;;;;4.38;1.23;;;4.10;99.90;;;;;;4973411;28;20035;-70
2022/01/08 12:21:54;;;;;;;2.10;1.10;;;4.10;99.90;;;;;;4973751;28;20373;-71
2022/01/08 12:24:28;;;;;;;4.13;0.85;;;4.00;99.90;;;;;;4973587;28;20468;-70
2022/01/08 12:26:56;;;;;;;5.35;1.50;;;4.00;99.90;;;;;;4973096;28;21436;-70
2022/01/08 12:29:32;;;;;;;3.90;1.20;;;3.90;99.90;;;;;;4973326;28;20105;-70
2022/01/08 12:32:16;;;;;;;4.38;1.13;;;3.80;99.90;;;;;;4973709;28;20090;-70
2022/01/08 12:34:48;;;;;;;6.82;2.00;;;3.90;99.90;;;;;;4972652;28;20154;-70
2022/01/08 12:37:15;;;;;;;4.10;1.10;;;4.00;99.90;;;;;;4973607;28;20026;-70
2022/01/08 12:39:49;;;;;;;5.82;1.63;;;4.00;99.90;;;;;;4973001;28;20031;-70
2022/01/08 12:42:23;;;;;;;6.63;1.42;;;4.00;99.90;;;;;;4973576;28;20039;-70
2022/01/08 12:45:20;;;;;;;2.10;1.10;;;3.90;99.90;;;;;;4955944;28;20042;-70
2022/01/08 12:47:56;;;;;;;10.80;2.00;;;3.70;99.90;;;;;;4966257;28;20050;-70
2022/01/08 12:50:32;;;;;;;8.05;2.60;;;3.60;99.90;;;;;;4973499;28;20023;-70
2022/01/08 12:53:06;;;;;;;3.88;1.30;;;3.50;99.90;;;;;;4973150;28;20039;-70
2022/01/08 12:55:36;;;;;;;3.67;1.70;;;3.40;99.90;;;;;;4972599;28;20031;-74
2022/01/08 12:58:18;;;;;;;5.65;1.75;;;3.40;99.90;;;;;;4972501;28;20031;-72
2022/01/08 13:00:59;;;;;;;5.28;1.42;;;3.40;99.90;;;;;;4972576;28;20188;-74
2022/01/08 13:03:37;;;;;;;6.22;1.50;;;3.50;99.90;;;;;;4972391;28;20031;-67
2022/01/08 13:06:10;;;;;;;4.85;1.02;;;3.50;99.90;;;;;;4973067;28;20030;-68
2022/01/08 13:08:36;;;;;;;3.13;1.15;;;3.60;99.90;;;;;;4972083;28;20033;-72
2022/01/08 13:11:07;;;;;;;4.10;1.45;;;3.60;99.90;;;;;;4972895;28;20105;-72
2022/01/08 13:13:55;;;;;;;3.47;1.05;;;3.60;99.90;;;;;;4968812;28;20474;-69
2022/01/08 13:16:27;;;;;;;5.97;1.15;;;3.60;99.90;;;;;;4953822;29;20350;-70
2022/01/08 13:19:29;;;;;;;2.30;1.30;;;3.60;99.90;;;;;;4936102;29;20027;-68
2022/01/08 13:22:02;;;;;;;3.90;1.23;;;3.70;99.90;;;;;;4924923;29;20067;-72
2022/01/08 13:24:32;;;;;;;2.92;1.05;;;3.70;99.90;;;;;;4938709;29;20284;-68
2022/01/08 13:26:59;;;;;;;;;;;3.70;99.90;;;;;;4955051;28;20031;-67
2022/01/08 13:29:34;;;;;;;1.73;0.90;;;3.70;99.90;;;;;;4951964;29;19915;-67
2022/01/08 13:32:10;;;;;;;1.83;1.00;;;3.70;99.90;;;;;;4954290;29;20477;-68
2022/01/08 13:34:39;;;;;;;4.80;1.27;;;3.70;99.90;;;;;;4953495;29;20031;-67